createdAt,value
2019-05-18T00:00:56.825Z,50.00
2019-05-18T00:04:02.497Z,50.00
2019-05-18T00:07:08.038Z,50.00
2019-05-18T00:10:13.682Z,49.90
2019-05-18T00:13:21.150Z,49.80
2019-05-18T00:16:26.710Z,49.80
2019-05-18T00:19:32.360Z,49.80
2019-05-18T00:22:38.037Z,49.80
2019-05-18T00:25:43.662Z,49.80
2019-05-18T00:28:49.375Z,49.70
2019-05-18T00:31:55.065Z,49.70
2019-05-18T00:35:00.685Z,49.70
2019-05-18T00:38:06.385Z,49.70
2019-05-18T00:41:12.977Z,49.60
2019-05-18T00:44:19.225Z,49.60
2019-05-18T00:47:40.068Z,49.50
2019-05-18T00:50:32.092Z,49.60
2019-05-18T00:53:37.766Z,49.50
2019-05-18T00:56:43.425Z,50.20
2019-05-18T00:59:49.049Z,49.50
2019-05-18T01:02:54.693Z,49.40
2019-05-18T01:06:00.250Z,49.40
2019-05-18T01:09:07.365Z,49.40
2019-05-18T01:12:13.195Z,49.40
2019-05-18T01:15:19.555Z,49.40
2019-05-18T01:18:25.242Z,49.30
2019-05-18T01:21:31.909Z,49.20
2019-05-18T01:24:39.253Z,49.30
2019-05-18T01:27:44.938Z,49.20
2019-05-18T01:30:50.642Z,49.90
2019-05-18T01:33:56.269Z,49.20
2019-05-18T01:37:01.857Z,49.10
2019-05-18T01:40:09.336Z,49.10
2019-05-18T01:43:14.938Z,49.10
2019-05-18T01:46:20.566Z,49.00
2019-05-18T01:49:26.260Z,49.00
2019-05-18T01:52:31.799Z,49.10
2019-05-18T01:55:37.515Z,48.90
2019-05-18T01:58:44.153Z,48.90
2019-05-18T02:01:49.885Z,48.80
2019-05-18T02:04:55.537Z,48.70
2019-05-18T02:08:01.153Z,48.70
2019-05-18T02:11:06.746Z,48.70
2019-05-18T02:14:13.302Z,48.60
2019-05-18T02:17:19.042Z,48.60
2019-05-18T02:20:24.722Z,48.40
2019-05-18T02:23:30.373Z,48.50
2019-05-18T02:26:36.006Z,48.50
2019-05-18T02:29:41.521Z,48.40
2019-05-18T02:32:47.128Z,48.50
2019-05-18T02:35:52.778Z,48.40
2019-05-18T02:38:58.428Z,48.40
2019-05-18T02:42:04.171Z,48.40
2019-05-18T02:45:10.129Z,48.40
2019-05-18T02:48:15.901Z,48.40
2019-05-18T02:51:21.676Z,48.40
2019-05-18T02:54:27.447Z,48.40
2019-05-18T02:57:33.067Z,48.30
2019-05-18T03:00:38.686Z,48.40
2019-05-18T03:03:44.370Z,48.30
2019-05-18T03:06:50.030Z,48.60
2019-05-18T03:09:55.691Z,48.60
2019-05-18T03:13:01.299Z,48.30
2019-05-18T03:16:08.931Z,48.20
2019-05-18T03:19:14.586Z,48.20
2019-05-18T03:22:21.359Z,48.20
2019-05-18T03:25:27.022Z,48.10
2019-05-18T03:28:32.668Z,48.20
2019-05-18T03:31:38.329Z,48.10
2019-05-18T03:34:44.076Z,48.10
2019-05-18T03:37:49.737Z,48.10
2019-05-18T03:40:55.338Z,48.10
2019-05-18T03:44:00.958Z,48.00
2019-05-18T03:47:06.566Z,47.90
2019-05-18T03:50:12.395Z,47.90
2019-05-18T03:53:19.138Z,47.80
2019-05-18T03:56:24.915Z,47.90
2019-05-18T03:59:30.639Z,47.90
2019-05-18T04:02:36.289Z,47.90
2019-05-18T04:05:41.980Z,47.90
2019-05-18T04:08:47.583Z,47.90
2019-05-18T04:11:53.258Z,47.90
2019-05-18T04:14:58.944Z,47.90
2019-05-18T04:18:04.569Z,47.70
2019-05-18T04:21:10.280Z,47.90
2019-05-18T04:24:15.911Z,47.80
2019-05-18T04:27:21.520Z,47.80
2019-05-18T04:30:27.167Z,47.80
2019-05-18T04:33:32.794Z,47.80
2019-05-18T04:36:38.370Z,47.90
2019-05-18T04:39:44.062Z,48.00
2019-05-18T04:42:49.678Z,47.90
2019-05-18T04:45:55.353Z,47.90
2019-05-18T04:49:00.950Z,47.90
2019-05-18T04:52:06.431Z,47.70
2019-05-18T04:55:12.213Z,47.80
2019-05-18T04:58:17.692Z,47.70
2019-05-18T05:01:23.314Z,47.80
2019-05-18T05:04:28.833Z,47.80
2019-05-18T05:07:34.458Z,47.50
2019-05-18T05:10:40.062Z,47.50
2019-05-18T05:13:45.710Z,47.60
2019-05-18T05:16:51.494Z,47.40
2019-05-18T05:19:57.202Z,48.10
2019-05-18T05:23:02.732Z,46.90
2019-05-18T05:26:08.429Z,47.70
2019-05-18T05:29:14.174Z,56.20
2019-05-18T05:32:19.827Z,58.30
2019-05-18T05:35:25.506Z,58.70
2019-05-18T05:38:31.224Z,59.10
2019-05-18T05:41:36.772Z,57.00
2019-05-18T05:44:42.323Z,51.90
2019-05-18T05:47:48.118Z,51.40
2019-05-18T05:50:54.890Z,51.70
2019-05-18T05:54:00.509Z,51.50
2019-05-18T05:57:06.153Z,51.30
2019-05-18T06:00:12.335Z,52.20
2019-05-18T06:03:17.984Z,51.00
2019-05-18T06:06:24.659Z,51.10
2019-05-18T06:09:30.322Z,50.70
2019-05-18T06:12:36.080Z,50.90
2019-05-18T06:15:41.718Z,52.60
2019-05-18T06:18:48.378Z,52.90
2019-05-18T06:21:54.013Z,52.90
2019-05-18T06:24:59.598Z,53.10
2019-05-18T06:28:06.378Z,53.40
2019-05-18T06:31:12.038Z,53.90
2019-05-18T06:34:17.732Z,53.80
2019-05-18T06:37:23.306Z,53.90
2019-05-18T06:40:28.885Z,54.10
2019-05-18T06:43:34.558Z,54.20
2019-05-18T06:46:40.021Z,54.20
2019-05-18T06:49:45.637Z,54.30
2019-05-18T06:52:51.290Z,54.40
2019-05-18T06:55:57.295Z,54.40
2019-05-18T06:59:03.195Z,54.40
2019-05-18T07:02:08.867Z,54.40
2019-05-18T07:05:14.614Z,54.40
2019-05-18T07:08:20.278Z,54.40
2019-05-18T07:11:25.926Z,54.40
2019-05-18T07:14:31.549Z,54.40
2019-05-18T07:17:37.239Z,54.40
2019-05-18T07:20:42.987Z,54.40
2019-05-18T07:23:48.638Z,54.20
2019-05-18T07:26:55.117Z,54.20
2019-05-18T07:30:00.767Z,54.40
2019-05-18T07:33:06.496Z,54.20
2019-05-18T07:36:12.234Z,54.20
2019-05-18T07:39:17.930Z,54.10
2019-05-18T07:42:23.610Z,54.10
2019-05-18T07:45:29.093Z,54.10
2019-05-18T07:48:36.522Z,54.10
2019-05-18T07:51:42.193Z,54.00
2019-05-18T07:54:47.926Z,54.00
2019-05-18T07:57:53.612Z,53.90
2019-05-18T08:00:59.264Z,54.00
2019-05-18T08:04:05.027Z,54.10
2019-05-18T08:07:10.645Z,54.10
2019-05-18T08:10:19.183Z,54.20
2019-05-18T08:13:24.834Z,54.10
2019-05-18T08:16:30.446Z,54.10
2019-05-18T08:19:36.165Z,54.10
2019-05-18T08:22:41.770Z,54.20
2019-05-18T08:25:47.417Z,54.10
2019-05-18T08:28:54.829Z,54.10
2019-05-18T08:32:00.570Z,54.10
2019-05-18T08:35:06.637Z,53.90
2019-05-18T08:38:12.287Z,53.90
2019-05-18T08:41:18.151Z,53.90
2019-05-18T08:44:24.762Z,54.50
2019-05-18T08:47:31.404Z,53.70
2019-05-18T08:50:37.027Z,53.60
2019-05-18T08:53:42.738Z,53.60
2019-05-18T08:56:48.391Z,53.50
2019-05-18T08:59:56.035Z,53.40
2019-05-18T09:03:01.930Z,53.50
2019-05-18T09:06:07.673Z,53.50
2019-05-18T09:09:13.321Z,53.40
2019-05-18T09:12:18.959Z,53.40
2019-05-18T09:15:24.676Z,53.40
2019-05-18T09:18:30.381Z,53.50
2019-05-18T09:21:36.038Z,53.40
2019-05-18T09:24:41.691Z,53.40
2019-05-18T09:27:47.317Z,53.50
2019-05-18T09:30:53.079Z,53.30
2019-05-18T09:33:58.654Z,53.50
2019-05-18T09:37:04.307Z,53.40
2019-05-18T09:40:10.566Z,53.30
2019-05-18T09:43:16.285Z,53.30
2019-05-18T09:46:22.095Z,53.30
2019-05-18T09:49:27.800Z,53.30
2019-05-18T09:52:44.621Z,53.40
2019-05-18T09:55:40.695Z,53.30
2019-05-18T09:58:46.322Z,53.40
2019-05-18T10:01:51.993Z,53.50
2019-05-18T10:04:57.626Z,53.50
2019-05-18T10:08:04.266Z,53.50
2019-05-18T10:11:09.813Z,53.50
2019-05-18T10:14:16.539Z,53.60
2019-05-18T10:17:22.194Z,53.60
2019-05-18T10:20:27.935Z,53.40
2019-05-18T10:23:33.598Z,53.60
2019-05-18T10:26:39.238Z,53.50
2019-05-18T10:29:46.746Z,53.40
2019-05-18T10:32:53.185Z,53.40
2019-05-18T10:35:58.930Z,53.50
2019-05-18T10:39:06.549Z,53.50
2019-05-18T10:42:12.186Z,53.40
2019-05-18T10:45:17.942Z,53.30
2019-05-18T10:48:24.722Z,53.30
2019-05-18T10:51:30.294Z,53.20
2019-05-18T10:54:38.173Z,53.10
2019-05-18T10:57:43.861Z,53.00
2019-05-18T11:00:49.502Z,53.00
2019-05-18T11:03:55.162Z,52.90
2019-05-18T11:07:00.842Z,52.90
2019-05-18T11:10:07.350Z,52.80
2019-05-18T11:13:12.995Z,52.80
2019-05-18T11:16:18.597Z,52.70
2019-05-18T11:19:25.981Z,52.70
2019-05-18T11:22:31.642Z,52.70
2019-05-18T11:25:37.294Z,52.60
2019-05-18T11:28:42.834Z,52.50
2019-05-18T11:31:48.605Z,52.50
2019-05-18T11:34:54.285Z,52.40
2019-05-18T11:37:59.865Z,52.40
2019-05-18T11:41:05.449Z,53.00
2019-05-18T11:44:11.107Z,52.40
2019-05-18T11:47:16.754Z,52.30
2019-05-18T11:50:22.749Z,52.30
2019-05-18T11:53:28.363Z,52.20
2019-05-18T11:56:34.130Z,52.20
2019-05-18T11:59:40.897Z,52.20
2019-05-18T12:02:46.580Z,52.20
2019-05-18T12:05:52.338Z,52.10
2019-05-18T12:08:58.709Z,52.10
2019-05-18T12:12:04.442Z,52.10
2019-05-18T12:15:10.874Z,52.20
2019-05-18T12:18:18.140Z,52.10
2019-05-18T12:21:23.774Z,52.10
2019-05-18T12:24:29.647Z,52.10
2019-05-18T12:27:35.291Z,52.10
2019-05-18T12:30:41.909Z,52.10
2019-05-18T12:33:47.561Z,52.20
2019-05-18T12:36:53.381Z,52.20
2019-05-18T12:39:59.015Z,52.10
2019-05-18T12:43:04.682Z,52.00
2019-05-18T12:46:10.271Z,52.10
2019-05-18T12:49:15.929Z,52.00
2019-05-18T12:52:21.644Z,52.10
2019-05-18T12:55:27.162Z,52.10
2019-05-18T12:58:32.806Z,52.00
2019-05-18T13:01:38.466Z,52.00
2019-05-18T13:04:44.130Z,52.00
2019-05-18T13:07:49.803Z,52.00
2019-05-18T13:10:56.550Z,52.00
2019-05-18T13:14:02.266Z,52.00
2019-05-18T13:17:07.887Z,52.00
2019-05-18T13:20:15.010Z,52.00
2019-05-18T13:23:20.591Z,52.00
2019-05-18T13:26:26.219Z,52.10
2019-05-18T13:29:32.038Z,52.00
2019-05-18T13:32:37.699Z,52.00
2019-05-18T13:35:45.558Z,52.00
2019-05-18T13:38:50.567Z,52.00
2019-05-18T13:41:56.150Z,52.00
2019-05-18T13:45:01.810Z,52.00
2019-05-18T13:48:08.372Z,52.10
2019-05-18T13:51:14.022Z,52.00
2019-05-18T13:54:19.683Z,52.00
2019-05-18T13:57:25.202Z,51.90
2019-05-18T14:00:30.851Z,52.00
2019-05-18T14:03:36.530Z,52.10
2019-05-18T14:06:42.297Z,52.40
2019-05-18T14:09:47.919Z,51.90
2019-05-18T14:12:53.901Z,52.00
2019-05-18T14:15:59.525Z,52.00
2019-05-18T14:19:05.113Z,52.00
2019-05-18T14:22:10.763Z,52.00
2019-05-18T14:25:19.646Z,51.90
2019-05-18T14:28:23.942Z,51.90
2019-05-18T14:31:29.534Z,52.00
2019-05-18T14:34:35.126Z,51.90
2019-05-18T14:37:40.658Z,51.90
2019-05-18T14:40:46.318Z,51.90
2019-05-18T14:43:52.103Z,51.90
2019-05-18T14:46:57.726Z,51.90
2019-05-18T14:50:03.369Z,51.90
2019-05-18T14:53:09.031Z,51.90
2019-05-18T14:56:17.038Z,51.90
2019-05-18T14:59:22.693Z,51.90
2019-05-18T15:02:29.251Z,51.90
2019-05-18T15:05:34.826Z,51.90
2019-05-18T15:08:40.338Z,51.90
2019-05-18T15:11:46.014Z,51.90
2019-05-18T15:14:51.799Z,51.90
2019-05-18T15:17:58.553Z,51.90
2019-05-18T15:21:04.179Z,51.80
2019-05-18T15:24:09.974Z,51.80
2019-05-18T15:27:15.583Z,51.90
2019-05-18T15:30:21.582Z,51.80
2019-05-18T15:33:27.370Z,51.90
2019-05-18T15:36:32.981Z,51.90
2019-05-18T15:39:38.666Z,51.80
2019-05-18T15:42:44.261Z,51.80
2019-05-18T15:45:49.838Z,51.80
2019-05-18T15:48:55.560Z,51.90
2019-05-18T15:52:01.205Z,51.80
2019-05-18T15:55:07.267Z,52.50
2019-05-18T15:58:12.822Z,51.80
2019-05-18T16:01:20.318Z,51.90
2019-05-18T16:04:26.065Z,51.70
2019-05-18T16:07:31.822Z,51.70
2019-05-18T16:10:37.360Z,51.80
2019-05-18T16:13:43.959Z,52.40
2019-05-18T16:16:54.424Z,51.70
2019-05-18T16:19:57.824Z,51.70
2019-05-18T16:23:03.579Z,51.70
2019-05-18T16:26:21.120Z,51.70
2019-05-18T16:29:16.558Z,51.80
2019-05-18T16:32:22.126Z,51.80
2019-05-18T16:35:27.890Z,51.70
2019-05-18T16:38:33.507Z,51.60
2019-05-18T16:41:39.191Z,51.80
2019-05-18T16:44:44.946Z,51.70
2019-05-18T16:47:50.571Z,51.60
2019-05-18T16:50:57.244Z,51.70
2019-05-18T16:54:04.778Z,51.60
2019-05-18T16:57:10.393Z,51.60
2019-05-18T17:00:17.550Z,51.60
2019-05-18T17:03:23.229Z,51.70
2019-05-18T17:06:28.785Z,51.70
2019-05-18T17:09:35.417Z,51.60
2019-05-18T17:12:41.251Z,51.60
2019-05-18T17:15:46.999Z,51.60
2019-05-18T17:18:52.525Z,51.60
2019-05-18T17:21:58.202Z,51.60
2019-05-18T17:25:05.380Z,51.60
2019-05-18T17:28:11.261Z,51.60
2019-05-18T17:31:17.057Z,51.60
2019-05-18T17:34:22.777Z,51.60
2019-05-18T17:37:29.786Z,51.70
2019-05-18T17:40:35.453Z,51.60
2019-05-18T17:43:41.150Z,51.70
2019-05-18T17:46:46.758Z,51.60
2019-05-18T17:49:52.619Z,51.60
2019-05-18T17:53:00.200Z,51.70
2019-05-18T17:56:05.887Z,51.60
2019-05-18T17:59:11.507Z,51.70
2019-05-18T18:02:17.078Z,51.70
2019-05-18T18:05:22.722Z,51.70
2019-05-18T18:08:28.507Z,51.70
2019-05-18T18:11:34.133Z,51.70
2019-05-18T18:14:41.638Z,51.60
2019-05-18T18:17:48.602Z,51.70
2019-05-18T18:20:54.311Z,51.60
2019-05-18T18:24:00.854Z,51.70
2019-05-18T18:27:07.419Z,51.70
2019-05-18T18:30:13.680Z,51.60
2019-05-18T18:33:20.234Z,51.60
2019-05-18T18:36:25.930Z,51.60
2019-05-18T18:39:31.492Z,51.60
2019-05-18T18:42:37.598Z,51.60
2019-05-18T18:45:43.494Z,51.60
2019-05-18T18:48:49.130Z,51.60
2019-05-18T18:51:54.871Z,51.60
2019-05-18T18:55:00.458Z,51.60
2019-05-18T18:58:06.230Z,51.90
2019-05-18T19:01:11.766Z,51.60
2019-05-18T19:04:17.381Z,51.40
2019-05-18T19:07:23.031Z,51.40
2019-05-18T19:10:28.613Z,51.40
2019-05-18T19:13:34.299Z,51.30
2019-05-18T19:16:39.897Z,51.40
2019-05-18T19:19:45.575Z,51.30
2019-05-18T19:22:51.372Z,51.40
2019-05-18T19:25:57.078Z,51.30
2019-05-18T19:29:02.750Z,51.30
2019-05-18T19:32:08.390Z,51.10
2019-05-18T19:35:15.448Z,51.20
2019-05-18T19:38:21.141Z,51.20
2019-05-18T19:41:26.846Z,51.10
2019-05-18T19:44:32.578Z,51.20
2019-05-18T19:47:38.269Z,51.30
2019-05-18T19:50:43.957Z,52.00
2019-05-18T19:53:51.754Z,61.30
2019-05-18T19:56:57.466Z,61.30
2019-05-18T20:00:04.103Z,57.70
2019-05-18T20:03:10.010Z,55.30
2019-05-18T20:06:15.610Z,54.30
2019-05-18T20:09:22.382Z,53.70
2019-05-18T20:12:28.022Z,53.20
2019-05-18T20:15:33.711Z,52.80
2019-05-18T20:18:39.373Z,52.70
2019-05-18T20:21:44.956Z,52.70
2019-05-18T20:29:25.318Z,52.80
2019-05-18T20:32:30.759Z,52.80
2019-05-18T20:35:36.411Z,52.60
2019-05-18T20:38:42.142Z,52.60
2019-05-18T20:41:48.015Z,52.60
2019-05-18T20:44:53.642Z,52.70
2019-05-18T20:47:59.291Z,52.70
2019-05-18T20:51:04.947Z,52.70
2019-05-18T20:54:10.674Z,52.70
2019-05-18T20:57:16.345Z,52.70
2019-05-18T21:00:21.901Z,52.70
2019-05-18T21:03:27.549Z,52.70
2019-05-18T21:06:34.098Z,52.70
2019-05-18T21:09:39.795Z,52.60
2019-05-18T21:12:45.436Z,52.70
2019-05-18T21:15:51.049Z,52.60
2019-05-18T21:18:56.766Z,52.60
2019-05-18T21:22:04.433Z,52.60
2019-05-18T21:25:11.939Z,52.60
2019-05-18T21:28:17.595Z,52.50
2019-05-18T21:31:23.209Z,53.10
2019-05-18T21:34:28.914Z,52.40
2019-05-18T21:37:34.542Z,52.30
2019-05-18T21:40:40.213Z,52.30
2019-05-18T21:43:45.702Z,52.20
2019-05-18T21:46:51.398Z,52.10
2019-05-18T21:49:58.081Z,52.10
2019-05-18T21:53:03.717Z,52.10
2019-05-18T21:56:09.303Z,52.00
2019-05-18T21:59:15.046Z,51.90
2019-05-18T22:02:20.742Z,51.80
2019-05-18T22:05:26.733Z,51.70
2019-05-18T22:08:32.418Z,51.80
2019-05-18T22:11:38.049Z,51.90
2019-05-18T22:14:43.749Z,51.80
2019-05-18T22:18:04.550Z,51.70
2019-05-18T22:21:10.317Z,51.60
2019-05-18T22:24:16.042Z,51.60
2019-05-18T22:27:21.711Z,51.60
2019-05-18T22:30:27.392Z,51.40
2019-05-18T22:33:32.942Z,51.30
2019-05-18T22:36:38.639Z,51.40
2019-05-18T22:39:44.395Z,51.40
2019-05-18T22:42:50.085Z,51.40
2019-05-18T22:45:55.743Z,51.40
2019-05-18T22:49:01.350Z,51.40
2019-05-18T22:52:07.055Z,51.50
2019-05-18T22:55:13.867Z,51.60
2019-05-18T22:58:19.507Z,51.50
2019-05-18T23:01:25.172Z,51.50
2019-05-18T23:04:30.777Z,51.50
2019-05-18T23:07:36.515Z,51.50
2019-05-18T23:10:42.266Z,51.40
2019-05-18T23:13:47.949Z,51.30
2019-05-18T23:16:53.645Z,51.40
2019-05-18T23:19:59.229Z,51.30
2019-05-18T23:23:04.925Z,51.40
2019-05-18T23:26:11.625Z,51.20
2019-05-18T23:29:17.742Z,51.10
2019-05-18T23:32:23.378Z,51.10
2019-05-18T23:35:29.003Z,51.20
2019-05-18T23:38:34.615Z,52.20
2019-05-18T23:41:41.466Z,51.60
2019-05-18T23:44:49.878Z,51.50
2019-05-18T23:47:55.570Z,51.30
2019-05-18T23:55:32.656Z,51.30
2019-05-18T23:58:38.273Z,51.40
